^^
Station Historical Data
Daily Summary for April 11, 2017 Units:  Both    English   Metric
« Previous Day
Next Day »
Daily Weekly Monthly Yearly Custom
  High: Low: Average:
Temperature: 81.3 °F /  27.4 °C 53.8 °F /  12.1 °C 63.4 °F /  17.4 °C
Dew Point: 55.6 °F /  13.1 °C 46.0 °F /  7.8 °C 51 °F /  10.6 °C
Humidity: 89% 31% 67%
Wind Speed: 4.9mph /  7.9km/h - 0.8mph /  1.3km/h
Wind Gust: 9.0mph /  14.5km/h - -
Wind- - SE
Pressure: 30.31 in /  1026.3 hPa 29.85 in /  1010.7 hPa -
Precipitation: 0.00 in /  0 mm    
Historical Graphs
 
 
Tabular Data for April 11, 2017
Time Temperature Dew Point Pressure Wind Wind Speed Wind Gust Humidity Rainfall Rate (Hourly) solar Conditions
00:04 58.8 °F /  14.9 °C 55.6 °F /  13.1 °C 30.30in /  1026hPa NE 0.9mph /  1.4km/h 4.0mph /  6.4km/h 89% 0.00in /  0mm 0.0 W/m2
00:10 58.8 °F /  14.9 °C 55.6 °F /  13.1 °C 30.30in /  1026hPa Calm   4.0mph /  6.4km/h 89% 0.00in /  0mm 0.0 W/m2
00:16 58.6 °F /  14.8 °C 55.4 °F /  13 °C 30.30in /  1026hPa Calm   2.0mph /  3.2km/h 89% 0.00in /  0mm 0.0 W/m2
00:22 58.5 °F /  14.7 °C 55.2 °F /  12.9 °C 30.29in /  1025.6hPa Calm   3.0mph /  4.8km/h 89% 0.00in /  0mm 0.0 W/m2
00:28 58.5 °F /  14.7 °C 54.9 °F /  12.7 °C 30.29in /  1025.6hPa East 0.9mph /  1.4km/h 6.0mph /  9.7km/h 88% 0.00in /  0mm 0.0 W/m2
00:34 58.5 °F /  14.7 °C 54.7 °F /  12.6 °C 30.29in /  1025.6hPa ESE 2.9mph /  4.7km/h 6.0mph /  9.7km/h 87% 0.00in /  0mm 0.0 W/m2
00:40 58.5 °F /  14.7 °C 54.3 °F /  12.4 °C 30.29in /  1025.6hPa NE 2.0mph /  3.2km/h 5.0mph /  8km/h 86% 0.00in /  0mm 0.0 W/m2
00:46 58.5 °F /  14.7 °C 54.3 °F /  12.4 °C 30.29in /  1025.6hPa Calm   6.0mph /  9.7km/h 86% 0.00in /  0mm 0.0 W/m2
00:52 58.6 °F /  14.8 °C 54.1 °F /  12.3 °C 30.29in /  1025.6hPa ENE 2.0mph /  3.2km/h 5.0mph /  8km/h 85% 0.00in /  0mm 0.0 W/m2
00:58 58.6 °F /  14.8 °C 54.1 °F /  12.3 °C 30.29in /  1025.6hPa ENE 2.9mph /  4.7km/h 6.0mph /  9.7km/h 85% 0.00in /  0mm 0.0 W/m2
01:04 58.6 °F /  14.8 °C 53.8 °F /  12.1 °C 30.29in /  1025.6hPa ENE 2.0mph /  3.2km/h 5.0mph /  8km/h 84% 0.00in /  0mm 0.0 W/m2
01:10 58.6 °F /  14.8 °C 53.8 °F /  12.1 °C 30.29in /  1025.6hPa Calm   6.0mph /  9.7km/h 84% 0.00in /  0mm 0.0 W/m2
01:16 58.5 °F /  14.7 °C 53.6 °F /  12 °C 30.29in /  1025.6hPa NE 0.9mph /  1.4km/h 4.0mph /  6.4km/h 84% 0.00in /  0mm 0.0 W/m2
01:22 58.5 °F /  14.7 °C 53.2 °F /  11.8 °C 30.28in /  1025.3hPa NE 0.9mph /  1.4km/h 4.0mph /  6.4km/h 83% 0.00in /  0mm 0.0 W/m2
01:28 58.3 °F /  14.6 °C 52.9 °F /  11.6 °C 30.28in /  1025.3hPa Calm   5.0mph /  8km/h 82% 0.00in /  0mm 0.0 W/m2
01:34 58.3 °F /  14.6 °C 52.5 °F /  11.4 °C 30.28in /  1025.3hPa NE 0.9mph /  1.4km/h 2.0mph /  3.2km/h 81% 0.00in /  0mm 0.0 W/m2
01:40 58.1 °F /  14.5 °C 52.3 °F /  11.3 °C 30.28in /  1025.3hPa NE 2.0mph /  3.2km/h 3.0mph /  4.8km/h 81% 0.00in /  0mm 0.0 W/m2
01:46 57.9 °F /  14.4 °C 51.8 °F /  11 °C 30.27in /  1024.9hPa ENE 2.9mph /  4.7km/h 4.0mph /  6.4km/h 80% 0.00in /  0mm 0.0 W/m2
01:58 57.7 °F /  14.3 °C 51.6 °F /  10.9 °C 30.28in /  1025.3hPa Calm   2.0mph /  3.2km/h 80% 0.00in /  0mm 0.0 W/m2
02:04 57.7 °F /  14.3 °C 51.3 °F /  10.7 °C 30.27in /  1024.9hPa Calm   2.0mph /  3.2km/h 79% 0.00in /  0mm 0.0 W/m2
02:10 57.6 °F /  14.2 °C 51.1 °F /  10.6 °C 30.27in /  1024.9hPa ENE 0.9mph /  1.4km/h 2.0mph /  3.2km/h 79% 0.00in /  0mm 0.0 W/m2
02:16 57.4 °F /  14.1 °C 50.9 °F /  10.5 °C 30.27in /  1024.9hPa East 0.9mph /  1.4km/h 3.0mph /  4.8km/h 79% 0.00in /  0mm 0.0 W/m2
02:22 57.2 °F /  14 °C 50.7 °F /  10.4 °C 30.27in /  1024.9hPa ENE 2.0mph /  3.2km/h 2.0mph /  3.2km/h 79% 0.00in /  0mm 0.0 W/m2
02:28 57.0 °F /  13.9 °C 50.5 °F /  10.3 °C 30.27in /  1024.9hPa East 2.0mph /  3.2km/h 3.0mph /  4.8km/h 79% 0.00in /  0mm 0.0 W/m2
02:34 56.8 °F /  13.8 °C 50.7 °F /  10.4 °C 30.27in /  1024.9hPa East 2.0mph /  3.2km/h 2.0mph /  3.2km/h 80% 0.00in /  0mm 0.0 W/m2
02:40 56.7 °F /  13.7 °C 50.5 °F /  10.3 °C 30.26in /  1024.6hPa NE 2.0mph /  3.2km/h 3.0mph /  4.8km/h 80% 0.00in /  0mm 0.0 W/m2
02:46 56.7 °F /  13.7 °C 50.9 °F /  10.5 °C 30.26in /  1024.6hPa SE 2.0mph /  3.2km/h 3.0mph /  4.8km/h 81% 0.00in /  0mm 0.0 W/m2
02:52 56.5 °F /  13.6 °C 50.7 °F /  10.4 °C 30.26in /  1024.6hPa Calm   2.0mph /  3.2km/h 81% 0.00in /  0mm 0.0 W/m2
02:58 56.1 °F /  13.4 °C 50.4 °F /  10.2 °C 30.27in /  1024.9hPa Calm   2.0mph /  3.2km/h 81% 0.00in /  0mm 0.0 W/m2
03:04 55.9 °F /  13.3 °C 50.2 °F /  10.1 °C 30.26in /  1024.6hPa Calm   3.0mph /  4.8km/h 81% 0.00in /  0mm 0.0 W/m2
03:10 55.8 °F /  13.2 °C 50.0 °F /  10 °C 30.27in /  1024.9hPa Calm   1.0mph /  1.6km/h 81% 0.00in /  0mm 0.0 W/m2
03:16 55.8 °F /  13.2 °C 49.6 °F /  9.8 °C 30.26in /  1024.6hPa SE 0.9mph /  1.4km/h 3.0mph /  4.8km/h 80% 0.00in /  0mm 0.0 W/m2
03:22 55.8 °F /  13.2 °C 49.6 °F /  9.8 °C 30.26in /  1024.6hPa SE 0.9mph /  1.4km/h 2.0mph /  3.2km/h 80% 0.00in /  0mm 0.0 W/m2
03:28 55.6 °F /  13.1 °C 49.5 °F /  9.7 °C 30.26in /  1024.6hPa Calm   2.0mph /  3.2km/h 80% 0.00in /  0mm 0.0 W/m2
03:34 55.6 °F /  13.1 °C 49.5 °F /  9.7 °C 30.26in /  1024.6hPa Calm   1.0mph /  1.6km/h 80% 0.00in /  0mm 0.0 W/m2
03:40 55.6 °F /  13.1 °C 49.8 °F /  9.9 °C 30.26in /  1024.6hPa Calm     81% 0.00in /  0mm 0.0 W/m2
03:46 55.6 °F /  13.1 °C 49.8 °F /  9.9 °C 30.26in /  1024.6hPa Calm     81% 0.00in /  0mm 0.0 W/m2
03:52 55.4 °F /  13 °C 50.0 °F /  10 °C 30.26in /  1024.6hPa ESE 2.0mph /  3.2km/h 2.0mph /  3.2km/h 82% 0.00in /  0mm 0.0 W/m2
03:58 55.2 °F /  12.9 °C 49.8 °F /  9.9 °C 30.26in /  1024.6hPa Calm   1.0mph /  1.6km/h 82% 0.00in /  0mm 0.0 W/m2
04:04 55.2 °F /  12.9 °C 49.8 °F /  9.9 °C 30.26in /  1024.6hPa Calm   2.0mph /  3.2km/h 82% 0.00in /  0mm 0.0 W/m2
04:10 55.0 °F /  12.8 °C 49.3 °F /  9.6 °C 30.26in /  1024.6hPa Calm   1.0mph /  1.6km/h 81% 0.00in /  0mm 0.0 W/m2
04:16 55.0 °F /  12.8 °C 49.3 °F /  9.6 °C 30.26in /  1024.6hPa Calm   2.0mph /  3.2km/h 81% 0.00in /  0mm 0.0 W/m2
04:22 54.9 °F /  12.7 °C 49.1 °F /  9.5 °C 30.26in /  1024.6hPa Calm   1.0mph /  1.6km/h 81% 0.00in /  0mm 0.0 W/m2
04:28 54.9 °F /  12.7 °C 49.5 °F /  9.7 °C 30.26in /  1024.6hPa Calm   1.0mph /  1.6km/h 82% 0.00in /  0mm 0.0 W/m2
04:34 54.9 °F /  12.7 °C 49.5 °F /  9.7 °C 30.26in /  1024.6hPa Calm   1.0mph /  1.6km/h 82% 0.00in /  0mm 0.0 W/m2
04:40 54.7 °F /  12.6 °C 49.3 °F /  9.6 °C 30.27in /  1024.9hPa Calm     82% 0.00in /  0mm 0.0 W/m2
04:46 54.7 °F /  12.6 °C 49.6 °F /  9.8 °C 30.27in /  1024.9hPa Calm   3.0mph /  4.8km/h 83% 0.00in /  0mm 0.0 W/m2
04:52 54.5 °F /  12.5 °C 49.5 °F /  9.7 °C 30.27in /  1024.9hPa Calm     83% 0.00in /  0mm 0.0 W/m2
04:58 54.3 °F /  12.4 °C 49.3 °F /  9.6 °C 30.27in /  1024.9hPa Calm   1.0mph /  1.6km/h 83% 0.00in /  0mm 0.0 W/m2
05:05 54.3 °F /  12.4 °C 49.6 °F /  9.8 °C 30.28in /  1025.3hPa Calm   2.0mph /  3.2km/h 84% 0.00in /  0mm 0.0 W/m2
05:11 54.1 °F /  12.3 °C 49.5 °F /  9.7 °C 30.28in /  1025.3hPa ESE 2.9mph /  4.7km/h 4.0mph /  6.4km/h 84% 0.00in /  0mm 0.0 W/m2
05:17 54.1 °F /  12.3 °C 49.1 °F /  9.5 °C 30.28in /  1025.3hPa East 0.9mph /  1.4km/h 3.0mph /  4.8km/h 83% 0.00in /  0mm 0.0 W/m2
05:23 54.0 °F /  12.2 °C 48.9 °F /  9.4 °C 30.28in /  1025.3hPa ENE 0.9mph /  1.4km/h 3.0mph /  4.8km/h 83% 0.00in /  0mm 0.0 W/m2
05:29 54.1 °F /  12.3 °C 49.5 °F /  9.7 °C 30.28in /  1025.3hPa Calm   5.0mph /  8km/h 84% 0.00in /  0mm 0.0 W/m2
05:35 54.1 °F /  12.3 °C 49.1 °F /  9.5 °C 30.28in /  1025.3hPa East 0.9mph /  1.4km/h 3.0mph /  4.8km/h 83% 0.00in /  0mm 0.0 W/m2
05:41 54.0 °F /  12.2 °C 48.9 °F /  9.4 °C 30.28in /  1025.3hPa Calm   4.0mph /  6.4km/h 83% 0.00in /  0mm 0.0 W/m2
05:47 54.0 °F /  12.2 °C 48.9 °F /  9.4 °C 30.29in /  1025.6hPa Calm   2.0mph /  3.2km/h 83% 0.00in /  0mm 0.0 W/m2
05:53 54.0 °F /  12.2 °C 48.9 °F /  9.4 °C 30.29in /  1025.6hPa Calm   1.0mph /  1.6km/h 83% 0.00in /  0mm 0.0 W/m2
05:59 54.0 °F /  12.2 °C 48.9 °F /  9.4 °C 30.29in /  1025.6hPa Calm   1.0mph /  1.6km/h 83% 0.00in /  0mm 0.0 W/m2
06:05 53.8 °F /  12.1 °C 48.7 °F /  9.3 °C 30.30in /  1026hPa ENE 2.9mph /  4.7km/h 3.0mph /  4.8km/h 83% 0.00in /  0mm 0.0 W/m2
06:11 53.8 °F /  12.1 °C 49.1 °F /  9.5 °C 30.30in /  1026hPa Calm   3.0mph /  4.8km/h 84% 0.00in /  0mm 5.0 W/m2
06:17 53.8 °F /  12.1 °C 49.1 °F /  9.5 °C 30.29in /  1025.6hPa East 2.0mph /  3.2km/h 4.0mph /  6.4km/h 84% 0.00in /  0mm 7.0 W/m2
06:23 53.8 °F /  12.1 °C 49.1 °F /  9.5 °C 30.30in /  1026hPa East 2.0mph /  3.2km/h 2.0mph /  3.2km/h 84% 0.00in /  0mm 11.0 W/m2
06:29 53.8 °F /  12.1 °C 49.1 °F /  9.5 °C 30.30in /  1026hPa Calm   1.0mph /  1.6km/h 84% 0.00in /  0mm 11.0 W/m2
06:35 54.0 °F /  12.2 °C 48.9 °F /  9.4 °C 30.30in /  1026hPa ESE 2.0mph /  3.2km/h 2.0mph /  3.2km/h 83% 0.00in /  0mm 12.0 W/m2
06:41 54.1 °F /  12.3 °C 48.7 °F /  9.3 °C 30.30in /  1026hPa Calm   2.0mph /  3.2km/h 82% 0.00in /  0mm 14.0 W/m2
06:47 54.3 °F /  12.4 °C 48.9 °F /  9.4 °C 30.30in /  1026hPa Calm   2.0mph /  3.2km/h 82% 0.00in /  0mm 16.0 W/m2
06:53 54.7 °F /  12.6 °C 49.3 °F /  9.6 °C 30.30in /  1026hPa Calm   3.0mph /  4.8km/h 82% 0.00in /  0mm 18.0 W/m2
06:59 55.0 °F /  12.8 °C 49.3 °F /  9.6 °C 30.30in /  1026hPa NE 2.9mph /  4.7km/h 5.0mph /  8km/h 81% 0.00in /  0mm 18.0 W/m2
07:05 55.6 °F /  13.1 °C 49.8 °F /  9.9 °C 30.31in /  1026.3hPa Calm   3.0mph /  4.8km/h 81% 0.00in /  0mm 19.0 W/m2
07:11 56.1 °F /  13.4 °C 49.6 °F /  9.8 °C 30.31in /  1026.3hPa SE 0.9mph /  1.4km/h 3.0mph /  4.8km/h 79% 0.00in /  0mm 19.0 W/m2
07:17 56.8 °F /  13.8 °C 50.4 °F /  10.2 °C 30.31in /  1026.3hPa ENE 2.0mph /  3.2km/h 4.0mph /  6.4km/h 79% 0.00in /  0mm 21.0 W/m2
07:23 57.6 °F /  14.2 °C 50.4 °F /  10.2 °C 30.31in /  1026.3hPa NE 0.9mph /  1.4km/h 2.0mph /  3.2km/h 77% 0.00in /  0mm 23.0 W/m2
07:29 58.5 °F /  14.7 °C 50.2 °F /  10.1 °C 30.31in /  1026.3hPa Calm   3.0mph /  4.8km/h 74% 0.00in /  0mm 26.0 W/m2
07:35 59.2 °F /  15.1 °C 50.2 °F /  10.1 °C 30.31in /  1026.3hPa ENE 0.9mph /  1.4km/h 3.0mph /  4.8km/h 72% 0.00in /  0mm 23.0 W/m2
07:41 60.1 °F /  15.6 °C 50.7 °F /  10.4 °C 30.31in /  1026.3hPa ESE 0.9mph /  1.4km/h 2.0mph /  3.2km/h 71% 0.00in /  0mm 25.0 W/m2
07:47 60.8 °F /  16 °C 50.2 °F /  10.1 °C 30.31in /  1026.3hPa NE 2.9mph /  4.7km/h 5.0mph /  8km/h 68% 0.00in /  0mm 25.0 W/m2
07:53 61.5 °F /  16.4 °C 50.0 °F /  10 °C 30.31in /  1026.3hPa NE 2.9mph /  4.7km/h 4.0mph /  6.4km/h 66% 0.00in /  0mm 26.0 W/m2
07:59 62.4 °F /  16.9 °C 50.5 °F /  10.3 °C 30.31in /  1026.3hPa East 4.0mph /  6.4km/h 4.0mph /  6.4km/h 65% 0.00in /  0mm 26.0 W/m2
08:05 63.1 °F /  17.3 °C 50.4 °F /  10.2 °C 30.31in /  1026.3hPa North 0.9mph /  1.4km/h 3.0mph /  4.8km/h 63% 0.00in /  0mm 26.0 W/m2
08:11 63.9 °F /  17.7 °C 51.1 °F /  10.6 °C 30.31in /  1026.3hPa NNW 2.0mph /  3.2km/h 3.0mph /  4.8km/h 63% 0.00in /  0mm 26.0 W/m2
08:17 64.4 °F /  18 °C 51.1 °F /  10.6 °C 30.31in /  1026.3hPa North 0.9mph /  1.4km/h 2.0mph /  3.2km/h 62% 0.00in /  0mm 28.0 W/m2
08:23 64.9 °F /  18.3 °C 52.0 °F /  11.1 °C 30.31in /  1026.3hPa NW 0.9mph /  1.4km/h 3.0mph /  4.8km/h 63% 0.00in /  0mm 28.0 W/m2
08:29 65.5 °F /  18.6 °C 53.1 °F /  11.7 °C 30.31in /  1026.3hPa Calm   1.0mph /  1.6km/h 64% 0.00in /  0mm 30.0 W/m2
08:35 65.7 °F /  18.7 °C 52.3 °F /  11.3 °C 30.31in /  1026.3hPa NW 2.0mph /  3.2km/h 3.0mph /  4.8km/h 62% 0.00in /  0mm 37.0 W/m2
08:41 66.2 °F /  19 °C 53.2 °F /  11.8 °C 30.31in /  1026.3hPa NNW 0.9mph /  1.4km/h 2.0mph /  3.2km/h 63% 0.00in /  0mm 559.0 W/m2
08:47 66.7 °F /  19.3 °C 53.2 °F /  11.8 °C 30.31in /  1026.3hPa Calm   3.0mph /  4.8km/h 62% 0.00in /  0mm 577.0 W/m2
08:53 67.8 °F /  19.9 °C 53.4 °F /  11.9 °C 30.31in /  1026.3hPa NNE 2.9mph /  4.7km/h 3.0mph /  4.8km/h 60% 0.00in /  0mm 598.0 W/m2
08:59 69.1 °F /  20.6 °C 53.6 °F /  12 °C 30.31in /  1026.3hPa SW 0.9mph /  1.4km/h 3.0mph /  4.8km/h 58% 0.00in /  0mm 610.0 W/m2
09:05 70.0 °F /  21.1 °C 55.0 °F /  12.8 °C 30.31in /  1026.3hPa Calm   2.0mph /  3.2km/h 59% 0.00in /  0mm 631.0 W/m2
14:49 81.0 °F /  27.2 °C 50.7 °F /  10.4 °C 30.17in /  1021.6hPa Calm   4.0mph /  6.4km/h 35% 0.00in /  0mm 585.0 W/m2
14:55 81.0 °F /  27.2 °C 50.7 °F /  10.4 °C 30.17in /  1021.6hPa West 2.0mph /  3.2km/h 5.0mph /  8km/h 35% 0.00in /  0mm 573.0 W/m2
15:01 81.0 °F /  27.2 °C 50.0 °F /  10 °C 30.17in /  1021.6hPa Calm   2.0mph /  3.2km/h 34% 0.00in /  0mm 547.0 W/m2
15:07 81.3 °F /  27.4 °C 52.5 °F /  11.4 °C 30.17in /  1021.6hPa NNW 2.0mph /  3.2km/h 7.0mph /  11.3km/h 37% 0.00in /  0mm 531.0 W/m2
15:13 81.1 °F /  27.3 °C 49.3 °F /  9.6 °C 30.17in /  1021.6hPa Calm   5.0mph /  8km/h 33% 0.00in /  0mm 515.0 W/m2
15:19 81.1 °F /  27.3 °C 47.7 °F /  8.7 °C 30.16in /  1021.2hPa NE 2.9mph /  4.7km/h 4.0mph /  6.4km/h 31% 0.00in /  0mm 490.0 W/m2
15:25 81.1 °F /  27.3 °C 48.6 °F /  9.2 °C 30.16in /  1021.2hPa WSW 0.9mph /  1.4km/h 5.0mph /  8km/h 32% 0.00in /  0mm 468.0 W/m2
15:31 81.1 °F /  27.3 °C 49.3 °F /  9.6 °C 30.16in /  1021.2hPa NNE 0.9mph /  1.4km/h 3.0mph /  4.8km/h 33% 0.00in /  0mm 446.0 W/m2
15:37 81.0 °F /  27.2 °C 48.4 °F /  9.1 °C 30.17in /  1021.6hPa NNW 0.9mph /  1.4km/h 4.0mph /  6.4km/h 32% 0.00in /  0mm 427.0 W/m2
15:43 81.1 °F /  27.3 °C 48.6 °F /  9.2 °C 30.16in /  1021.2hPa Calm   3.0mph /  4.8km/h 32% 0.00in /  0mm 411.0 W/m2
15:49 81.1 °F /  27.3 °C 49.3 °F /  9.6 °C 30.16in /  1021.2hPa NNW 2.9mph /  4.7km/h 5.0mph /  8km/h 33% 0.00in /  0mm 394.0 W/m2
15:55 81.0 °F /  27.2 °C 48.4 °F /  9.1 °C 30.16in /  1021.2hPa WSW 0.9mph /  1.4km/h 9.0mph /  14.5km/h 32% 0.00in /  0mm 371.0 W/m2
16:01 80.6 °F /  27 °C 48.9 °F /  9.4 °C 30.16in /  1021.2hPa NNW 0.9mph /  1.4km/h 1.0mph /  1.6km/h 33% 0.00in /  0mm 348.0 W/m2
16:07 80.2 °F /  26.8 °C 48.6 °F /  9.2 °C 30.16in /  1021.2hPa Calm   3.0mph /  4.8km/h 33% 0.00in /  0mm 329.0 W/m2
16:13 80.2 °F /  26.8 °C 48.6 °F /  9.2 °C 30.16in /  1021.2hPa NNW 4.0mph /  6.4km/h 5.0mph /  8km/h 33% 0.00in /  0mm 306.0 W/m2
16:19 80.1 °F /  26.7 °C 48.4 °F /  9.1 °C 30.16in /  1021.2hPa NNE 2.9mph /  4.7km/h 6.0mph /  9.7km/h 33% 0.00in /  0mm 139.0 W/m2
16:25 79.3 °F /  26.3 °C 49.3 °F /  9.6 °C 30.16in /  1021.2hPa Calm   1.0mph /  1.6km/h 35% 0.00in /  0mm 42.0 W/m2
16:32 79.0 °F /  26.1 °C 46.6 °F /  8.1 °C 30.16in /  1021.2hPa Calm   3.0mph /  4.8km/h 32% 0.00in /  0mm 39.0 W/m2
16:37 78.4 °F /  25.8 °C 46.9 °F /  8.3 °C 30.16in /  1021.2hPa NW 4.0mph /  6.4km/h 5.0mph /  8km/h 33% 0.00in /  0mm 33.0 W/m2
16:43 78.1 °F /  25.6 °C 46.6 °F /  8.1 °C 30.16in /  1021.2hPa NNE 0.9mph /  1.4km/h 2.0mph /  3.2km/h 33% 0.00in /  0mm 30.0 W/m2
16:49 77.4 °F /  25.2 °C 46.0 °F /  7.8 °C 30.16in /  1021.2hPa Calm   5.0mph /  8km/h 33% 0.00in /  0mm 39.0 W/m2
16:55 76.8 °F /  24.9 °C 46.4 °F /  8 °C 30.16in /  1021.2hPa Calm     34% 0.00in /  0mm 26.0 W/m2
17:01 76.5 °F /  24.7 °C 46.0 °F /  7.8 °C 30.16in /  1021.2hPa NNE 2.0mph /  3.2km/h 4.0mph /  6.4km/h 34% 0.00in /  0mm 18.0 W/m2
17:08 75.9 °F /  24.4 °C 46.2 °F /  7.9 °C 30.16in /  1021.2hPa Calm   1.0mph /  1.6km/h 35% 0.00in /  0mm 16.0 W/m2
17:14 75.6 °F /  24.2 °C 47.5 °F /  8.6 °C 30.17in /  1021.6hPa Calm     37% 0.00in /  0mm 14.0 W/m2
17:20 75.0 °F /  23.9 °C 46.9 °F /  8.3 °C 30.17in /  1021.6hPa Calm   2.0mph /  3.2km/h 37% 0.00in /  0mm 12.0 W/m2
17:26 74.7 °F /  23.7 °C 47.3 °F /  8.5 °C 30.17in /  1021.6hPa Calm   1.0mph /  1.6km/h 38% 0.00in /  0mm 9.0 W/m2
17:38 73.8 °F /  23.2 °C 48.6 °F /  9.2 °C 30.17in /  1021.6hPa Calm     41% 0.00in /  0mm 0.0 W/m2
17:44 73.2 °F /  22.9 °C 49.5 °F /  9.7 °C 30.17in /  1021.6hPa Calm     43% 0.00in /  0mm 0.0 W/m2
17:50 72.7 °F /  22.6 °C 50.2 °F /  10.1 °C 30.17in /  1021.6hPa Calm     45% 0.00in /  0mm 0.0 W/m2
17:56 72.1 °F /  22.3 °C 50.2 °F /  10.1 °C 30.18in /  1021.9hPa Calm     46% 0.00in /  0mm 0.0 W/m2
18:02 71.4 °F /  21.9 °C 50.7 °F /  10.4 °C 30.18in /  1021.9hPa Calm   1.0mph /  1.6km/h 48% 0.00in /  0mm 0.0 W/m2
18:09 70.7 °F /  21.5 °C 51.6 °F /  10.9 °C 30.18in /  1021.9hPa Calm     51% 0.00in /  0mm 0.0 W/m2
18:15 70.2 °F /  21.2 °C 51.3 °F /  10.7 °C 30.18in /  1021.9hPa SSE 0.9mph /  1.4km/h 5.0mph /  8km/h 51% 0.00in /  0mm 0.0 W/m2
18:21 69.6 °F /  20.9 °C 51.8 °F /  11 °C 30.19in /  1022.2hPa SE 2.0mph /  3.2km/h 5.0mph /  8km/h 53% 0.00in /  0mm 0.0 W/m2
18:27 69.3 °F /  20.7 °C 52.3 °F /  11.3 °C 30.19in /  1022.2hPa South 2.0mph /  3.2km/h 5.0mph /  8km/h 55% 0.00in /  0mm 0.0 W/m2
18:33 68.7 °F /  20.4 °C 52.3 °F /  11.3 °C 30.19in /  1022.2hPa SE 4.9mph /  7.9km/h 5.0mph /  8km/h 56% 0.00in /  0mm 0.0 W/m2
18:39 68.5 °F /  20.3 °C 52.2 °F /  11.2 °C 30.19in /  1022.2hPa SE 2.0mph /  3.2km/h 4.0mph /  6.4km/h 56% 0.00in /  0mm 0.0 W/m2
18:45 68.4 °F /  20.2 °C 53.1 °F /  11.7 °C 30.20in /  1022.6hPa Calm   1.0mph /  1.6km/h 58% 0.00in /  0mm 0.0 W/m2
18:51 68.2 °F /  20.1 °C 52.3 °F /  11.3 °C 30.20in /  1022.6hPa Calm     57% 0.00in /  0mm 0.0 W/m2
18:57 67.8 °F /  19.9 °C 52.0 °F /  11.1 °C 30.20in /  1022.6hPa Calm   2.0mph /  3.2km/h 57% 0.00in /  0mm 0.0 W/m2
19:04 67.5 °F /  19.7 °C 52.2 °F /  11.2 °C 30.20in /  1022.6hPa Calm   2.0mph /  3.2km/h 58% 0.00in /  0mm 0.0 W/m2
19:10 67.3 °F /  19.6 °C 52.9 °F /  11.6 °C 30.20in /  1022.6hPa Calm     60% 0.00in /  0mm 0.0 W/m2
19:16 66.9 °F /  19.4 °C 53.1 °F /  11.7 °C 30.20in /  1022.6hPa Calm     61% 0.00in /  0mm 0.0 W/m2
19:22 66.6 °F /  19.2 °C 52.7 °F /  11.5 °C 30.21in /  1022.9hPa North 0.9mph /  1.4km/h 1.0mph /  1.6km/h 61% 0.00in /  0mm 0.0 W/m2
19:28 66.4 °F /  19.1 °C 52.5 °F /  11.4 °C 30.21in /  1022.9hPa Calm   1.0mph /  1.6km/h 61% 0.00in /  0mm 0.0 W/m2
19:34 66.2 °F /  19 °C 52.9 °F /  11.6 °C 30.21in /  1022.9hPa Calm     62% 0.00in /  0mm 0.0 W/m2
19:40 65.8 °F /  18.8 °C 52.9 °F /  11.6 °C 30.21in /  1022.9hPa Calm   1.0mph /  1.6km/h 63% 0.00in /  0mm 0.0 W/m2
19:46 65.7 °F /  18.7 °C 53.2 °F /  11.8 °C 30.21in /  1022.9hPa Calm   2.0mph /  3.2km/h 64% 0.00in /  0mm 0.0 W/m2
19:58 65.1 °F /  18.4 °C 53.1 °F /  11.7 °C 30.21in /  1022.9hPa Calm   2.0mph /  3.2km/h 65% 0.00in /  0mm 0.0 W/m2
20:04 64.9 °F /  18.3 °C 53.8 °F /  12.1 °C 30.22in /  1023.2hPa Calm   2.0mph /  3.2km/h 67% 0.00in /  0mm 0.0 W/m2
20:10 64.8 °F /  18.2 °C 53.6 °F /  12 °C 30.22in /  1023.2hPa NE 2.0mph /  3.2km/h 3.0mph /  4.8km/h 67% 0.00in /  0mm 0.0 W/m2
20:16 64.6 °F /  18.1 °C 53.4 °F /  11.9 °C 30.22in /  1023.2hPa ENE 2.0mph /  3.2km/h 2.0mph /  3.2km/h 67% 0.00in /  0mm 0.0 W/m2
20:22 64.2 °F /  17.9 °C 53.4 °F /  11.9 °C 30.22in /  1023.2hPa Calm   3.0mph /  4.8km/h 68% 0.00in /  0mm 0.0 W/m2
20:28 64.0 °F /  17.8 °C 53.2 °F /  11.8 °C 30.22in /  1023.2hPa ENE 0.9mph /  1.4km/h 2.0mph /  3.2km/h 68% 0.00in /  0mm 0.0 W/m2
20:35 63.9 °F /  17.7 °C 53.4 °F /  11.9 °C 30.22in /  1023.2hPa Calm   2.0mph /  3.2km/h 69% 0.00in /  0mm 0.0 W/m2
20:41 63.9 °F /  17.7 °C 53.4 °F /  11.9 °C 30.22in /  1023.2hPa Calm   1.0mph /  1.6km/h 69% 0.00in /  0mm 0.0 W/m2
20:47 63.7 °F /  17.6 °C 53.2 °F /  11.8 °C 30.22in /  1023.2hPa SSE 0.9mph /  1.4km/h 2.0mph /  3.2km/h 69% 0.00in /  0mm 0.0 W/m2
20:53 63.7 °F /  17.6 °C 52.9 °F /  11.6 °C 30.22in /  1023.2hPa SE 2.0mph /  3.2km/h 4.0mph /  6.4km/h 68% 0.00in /  0mm 0.0 W/m2
20:59 63.7 °F /  17.6 °C 52.9 °F /  11.6 °C 30.22in /  1023.2hPa Calm   2.0mph /  3.2km/h 68% 0.00in /  0mm 0.0 W/m2
21:05 63.7 °F /  17.6 °C 52.9 °F /  11.6 °C 30.22in /  1023.2hPa ENE 0.9mph /  1.4km/h 1.0mph /  1.6km/h 68% 0.00in /  0mm 0.0 W/m2
21:11 63.7 °F /  17.6 °C 53.2 °F /  11.8 °C 30.22in /  1023.2hPa Calm   1.0mph /  1.6km/h 69% 0.00in /  0mm 0.0 W/m2
21:17 63.1 °F /  17.3 °C 52.9 °F /  11.6 °C 30.23in /  1023.6hPa Calm   1.0mph /  1.6km/h 69% 0.00in /  0mm 0.0 W/m2
21:23 63.0 °F /  17.2 °C 53.1 °F /  11.7 °C 30.23in /  1023.6hPa Calm   3.0mph /  4.8km/h 70% 0.00in /  0mm 0.0 W/m2
21:29 62.8 °F /  17.1 °C 52.9 °F /  11.6 °C 30.23in /  1023.6hPa SSE 0.9mph /  1.4km/h 1.0mph /  1.6km/h 70% 0.00in /  0mm 0.0 W/m2
21:35 62.4 °F /  16.9 °C 52.9 °F /  11.6 °C 30.23in /  1023.6hPa Calm     71% 0.00in /  0mm 0.0 W/m2
21:41 62.4 °F /  16.9 °C 53.2 °F /  11.8 °C 30.23in /  1023.6hPa Calm     72% 0.00in /  0mm 0.0 W/m2
21:47 62.2 °F /  16.8 °C 53.1 °F /  11.7 °C 30.23in /  1023.6hPa Calm   1.0mph /  1.6km/h 72% 0.00in /  0mm 0.0 W/m2
21:54 62.1 °F /  16.7 °C 52.9 °F /  11.6 °C 30.23in /  1023.6hPa Calm   1.0mph /  1.6km/h 72% 0.00in /  0mm 0.0 W/m2
22:00 62.1 °F /  16.7 °C 52.9 °F /  11.6 °C 30.23in /  1023.6hPa ESE 0.9mph /  1.4km/h 1.0mph /  1.6km/h 72% 0.00in /  0mm 0.0 W/m2
22:06 62.1 °F /  16.7 °C 52.5 °F /  11.4 °C 30.23in /  1023.6hPa Calm   1.0mph /  1.6km/h 71% 0.00in /  0mm 0.0 W/m2
22:12 62.1 °F /  16.7 °C 52.5 °F /  11.4 °C 30.23in /  1023.6hPa Calm   1.0mph /  1.6km/h 71% 0.00in /  0mm 0.0 W/m2
22:18 62.1 °F /  16.7 °C 52.9 °F /  11.6 °C 30.23in /  1023.6hPa ENE 0.9mph /  1.4km/h 2.0mph /  3.2km/h 72% 0.00in /  0mm 0.0 W/m2
22:24 62.1 °F /  16.7 °C 52.9 °F /  11.6 °C 30.23in /  1023.6hPa Calm   2.0mph /  3.2km/h 72% 0.00in /  0mm 0.0 W/m2
22:30 61.9 °F /  16.6 °C 52.7 °F /  11.5 °C 30.23in /  1023.6hPa Calm   2.0mph /  3.2km/h 72% 0.00in /  0mm 0.0 W/m2
22:36 61.7 °F /  16.5 °C 52.9 °F /  11.6 °C 30.23in /  1023.6hPa Calm     73% 0.00in /  0mm 0.0 W/m2
22:42 61.5 °F /  16.4 °C 52.0 °F /  11.1 °C 30.23in /  1023.6hPa Calm   2.0mph /  3.2km/h 71% 0.00in /  0mm 0.0 W/m2
22:48 61.3 °F /  16.3 °C 52.2 °F /  11.2 °C 30.23in /  1023.6hPa Calm   1.0mph /  1.6km/h 72% 0.00in /  0mm 0.0 W/m2
22:54 61.2 °F /  16.2 °C 52.0 °F /  11.1 °C 30.23in /  1023.6hPa Calm   3.0mph /  4.8km/h 72% 0.00in /  0mm 0.0 W/m2
23:01 61.2 °F /  16.2 °C 52.0 °F /  11.1 °C 30.23in /  1023.6hPa ESE 0.9mph /  1.4km/h 2.0mph /  3.2km/h 72% 0.00in /  0mm 0.0 W/m2
23:07 61.0 °F /  16.1 °C 52.0 °F /  11.1 °C 30.23in /  1023.6hPa NW 2.9mph /  4.7km/h 3.0mph /  4.8km/h 72% 0.00in /  0mm 0.0 W/m2
23:13 61.2 °F /  16.2 °C 50.5 °F /  10.3 °C 30.23in /  1023.6hPa North 0.9mph /  1.4km/h 2.0mph /  3.2km/h 68% 0.00in /  0mm 0.0 W/m2
23:19 61.9 °F /  16.6 °C 51.3 °F /  10.7 °C 30.23in /  1023.6hPa Calm   2.0mph /  3.2km/h 68% 0.00in /  0mm 0.0 W/m2
23:25 62.1 °F /  16.7 °C 51.8 °F /  11 °C 30.23in /  1023.6hPa ENE 0.9mph /  1.4km/h 2.0mph /  3.2km/h 69% 0.00in /  0mm 0.0 W/m2
23:31 62.1 °F /  16.7 °C 52.2 °F /  11.2 °C 30.23in /  1023.6hPa Calm   1.0mph /  1.6km/h 70% 0.00in /  0mm 0.0 W/m2
23:38 62.1 °F /  16.7 °C 51.8 °F /  11 °C 30.23in /  1023.6hPa Calm     69% 0.00in /  0mm 0.0 W/m2
23:44 61.9 °F /  16.6 °C 52.0 °F /  11.1 °C 29.85in /  1010.7hPa Calm     70% 0.00in /  0mm 0.0 W/m2
23:50 61.5 °F /  16.4 °C 52.0 °F /  11.1 °C 29.85in /  1010.7hPa Calm     71% 0.00in /  0mm 0.0 W/m2
23:56 61.3 °F /  16.3 °C 52.2 °F /  11.2 °C 29.85in /  1010.7hPa Calm   1.0mph /  1.6km/h 72% 0.00in /  0mm 0.0 W/m2
Olympia, Windhoek, Namibia
Compliments of Weather Underground - 2.75 mb